createdAt,value
2023-02-07T00:02:15.336Z,15.63
2023-02-07T00:04:42.101Z,14.93
2023-02-07T00:07:08.765Z,15.23
2023-02-07T00:09:35.350Z,15.13
2023-02-07T00:12:02.535Z,17.10
2023-02-07T00:14:29.453Z,16.23
2023-02-07T00:16:56.205Z,17.60
2023-02-07T00:19:22.924Z,18.23
2023-02-07T00:21:49.543Z,18.80
2023-02-07T00:24:16.248Z,17.93
2023-02-07T00:26:43.000Z,18.27
2023-02-07T00:29:10.390Z,16.80
2023-02-07T00:31:37.309Z,18.03
2023-02-07T00:34:06.060Z,19.40
2023-02-07T00:36:34.302Z,16.00
2023-02-07T00:39:04.984Z,17.70
2023-02-07T00:41:32.857Z,17.53
2023-02-07T00:44:00.153Z,16.93
2023-02-07T00:46:26.898Z,19.20
2023-02-07T00:48:55.059Z,18.53
2023-02-07T00:51:22.629Z,19.97
2023-02-07T00:53:49.244Z,19.33
2023-02-07T00:56:17.190Z,18.03
2023-02-07T00:58:43.789Z,20.50
2023-02-07T01:01:10.588Z,19.47
2023-02-07T01:03:37.618Z,18.57
2023-02-07T01:06:05.498Z,20.33
2023-02-07T01:08:32.299Z,19.20
2023-02-07T01:11:03.181Z,21.77
2023-02-07T01:13:29.879Z,20.37
2023-02-07T01:15:56.581Z,20.27
2023-02-07T01:18:23.397Z,20.53
2023-02-07T01:20:50.027Z,19.03
2023-02-07T01:23:17.005Z,21.33
2023-02-07T01:25:44.841Z,22.63
2023-02-07T01:28:12.867Z,21.70
2023-02-07T01:30:44.316Z,20.90
2023-02-07T01:33:11.381Z,22.60
2023-02-07T01:35:38.514Z,21.43
2023-02-07T01:38:05.408Z,24.70
2023-02-07T01:40:32.235Z,21.67
2023-02-07T01:42:58.966Z,19.97
2023-02-07T01:45:31.442Z,19.97
2023-02-07T01:48:12.779Z,20.67
2023-02-07T01:50:42.633Z,22.17
2023-02-07T01:53:12.698Z,22.60
2023-02-07T01:55:42.989Z,20.30
2023-02-07T01:58:10.392Z,20.20
2023-02-07T02:00:37.885Z,20.83
2023-02-07T02:03:06.408Z,20.23
2023-02-07T02:05:35.555Z,19.00
2023-02-07T02:08:02.776Z,19.53
2023-02-07T02:11:07.532Z,20.30
2023-02-07T02:13:49.987Z,20.23
2023-02-07T02:16:19.400Z,19.53
2023-02-07T02:19:13.327Z,23.37
2023-02-07T02:22:25.334Z,21.33
2023-02-07T02:25:20.272Z,19.87
2023-02-07T02:28:19.528Z,19.57
2023-02-07T02:31:02.621Z,20.13
2023-02-07T02:33:38.705Z,19.63
2023-02-07T02:36:17.476Z,19.80
2023-02-07T02:38:59.625Z,20.23
2023-02-07T02:41:42.257Z,18.57
2023-02-07T02:44:20.270Z,20.47
2023-02-07T02:46:48.715Z,21.77
2023-02-07T02:49:17.746Z,20.30
2023-02-07T02:51:44.496Z,20.27
2023-02-07T02:54:32.258Z,19.90
2023-02-07T02:57:15.470Z,22.17
2023-02-07T03:00:02.642Z,20.13
2023-02-07T03:02:50.365Z,20.23
2023-02-07T03:05:46.308Z,20.50
2023-02-07T03:08:38.361Z,22.97
2023-02-07T03:11:18.929Z,23.93
2023-02-07T03:14:33.722Z,23.43
2023-02-07T03:17:05.946Z,23.37
2023-02-07T03:19:49.780Z,21.70
2023-02-07T03:22:20.219Z,20.60
2023-02-07T03:24:54.472Z,21.27
2023-02-07T03:27:24.619Z,24.63
2023-02-07T03:29:54.973Z,22.20
2023-02-07T03:32:21.807Z,23.53
2023-02-07T03:35:04.045Z,23.17
2023-02-07T03:37:41.497Z,24.03
2023-02-07T03:40:09.007Z,22.30
2023-02-07T03:42:41.744Z,25.20
2023-02-07T03:45:12.391Z,23.73
2023-02-07T03:47:39.360Z,26.80
2023-02-07T03:50:06.362Z,24.33
2023-02-07T03:52:33.111Z,24.37
2023-02-07T03:54:59.693Z,23.00
2023-02-07T03:57:26.382Z,22.77
2023-02-07T03:59:53.108Z,25.20
2023-02-07T04:02:19.857Z,27.23
2023-02-07T04:04:46.446Z,25.63
2023-02-07T04:07:13.152Z,28.43
2023-02-07T04:09:40.838Z,28.23
2023-02-07T04:12:07.644Z,25.37
2023-02-07T04:14:34.806Z,25.53
2023-02-07T04:17:01.594Z,24.27
2023-02-07T04:19:28.265Z,24.17
2023-02-07T04:21:55.061Z,28.23
2023-02-07T04:24:21.658Z,25.37
2023-02-07T04:26:48.356Z,23.63
2023-02-07T04:29:14.979Z,25.37
2023-02-07T04:31:41.900Z,24.37
2023-02-07T04:34:09.370Z,23.27
2023-02-07T04:36:36.411Z,23.50
2023-02-07T04:39:03.625Z,23.80
2023-02-07T04:41:30.348Z,24.23
2023-02-07T04:43:57.104Z,22.67
2023-02-07T04:46:23.817Z,23.10
2023-02-07T04:48:50.414Z,24.77
2023-02-07T04:54:08.337Z,23.63
2023-02-07T04:56:36.389Z,26.27
2023-02-07T04:59:03.321Z,26.77
2023-02-07T05:01:29.949Z,24.87
2023-02-07T05:03:56.688Z,25.43
2023-02-07T05:06:23.313Z,26.80
2023-02-07T05:08:50.008Z,26.23
2023-02-07T05:11:16.970Z,26.90
2023-02-07T05:13:43.696Z,27.17
2023-02-07T05:16:10.345Z,25.07
2023-02-07T05:18:37.038Z,23.60
2023-02-07T05:21:03.795Z,28.67
2023-02-07T05:23:30.429Z,27.67
2023-02-07T05:25:57.143Z,25.87
2023-02-07T05:28:23.956Z,25.47
2023-02-07T05:30:54.015Z,24.80
2023-02-07T05:33:20.916Z,25.20
2023-02-07T05:35:47.520Z,25.00
2023-02-07T05:38:16.685Z,26.83
2023-02-07T05:40:43.736Z,25.67
2023-02-07T05:43:11.830Z,27.90
2023-02-07T05:45:38.810Z,27.70
2023-02-07T05:48:06.012Z,29.53
2023-02-07T05:50:34.127Z,31.37
2023-02-07T05:53:09.813Z,30.90
2023-02-07T05:55:37.493Z,33.53
2023-02-07T05:58:04.393Z,37.03
2023-02-07T06:00:31.571Z,33.20
2023-02-07T06:02:58.214Z,34.63
2023-02-07T06:05:25.089Z,33.73
2023-02-07T06:07:52.095Z,34.67
2023-02-07T06:10:18.943Z,32.17
2023-02-07T06:12:45.701Z,30.87
2023-02-07T06:15:12.473Z,30.33
2023-02-07T06:17:39.091Z,36.87
2023-02-07T06:20:06.242Z,31.50
2023-02-07T06:22:35.995Z,31.50
2023-02-07T06:25:02.848Z,32.37
2023-02-07T06:27:29.643Z,31.97
2023-02-07T06:29:56.493Z,33.97
2023-02-07T06:32:23.126Z,33.37
2023-02-07T06:34:49.866Z,33.73
2023-02-07T06:37:16.549Z,34.47
2023-02-07T06:39:43.320Z,34.80
2023-02-07T06:42:09.943Z,34.70
2023-02-07T06:44:36.756Z,31.10
2023-02-07T06:47:03.402Z,30.20
2023-02-07T06:49:30.078Z,32.00
2023-02-07T06:51:56.744Z,28.77
2023-02-07T06:54:23.532Z,29.47
2023-02-07T06:56:50.275Z,30.30
2023-02-07T06:59:17.192Z,29.83
2023-02-07T07:01:43.966Z,30.60
2023-02-07T07:04:10.714Z,28.93
2023-02-07T07:06:37.530Z,32.37
2023-02-07T07:09:04.579Z,30.87
2023-02-07T07:11:31.242Z,33.10
2023-02-07T07:13:58.078Z,31.20
2023-02-07T07:16:24.744Z,33.57
2023-02-07T07:18:51.421Z,32.83
2023-02-07T07:21:18.108Z,31.87
2023-02-07T07:23:44.860Z,30.30
2023-02-07T07:26:11.470Z,31.30
2023-02-07T07:28:38.255Z,30.20
2023-02-07T07:31:06.403Z,31.40
2023-02-07T07:33:33.286Z,30.03
2023-02-07T07:36:01.501Z,31.60
2023-02-07T07:38:30.174Z,29.97
2023-02-07T07:40:56.800Z,29.17
2023-02-07T07:43:23.661Z,29.47
2023-02-07T07:45:55.822Z,25.47
2023-02-07T07:48:23.771Z,29.07
2023-02-07T07:50:51.646Z,26.23
2023-02-07T07:53:19.446Z,29.53
2023-02-07T07:55:53.786Z,30.07
2023-02-07T07:58:21.887Z,30.23
2023-02-07T08:00:48.723Z,27.83
2023-02-07T08:03:17.167Z,27.03
2023-02-07T08:05:44.070Z,28.53
2023-02-07T08:08:11.089Z,28.53
2023-02-07T08:10:38.517Z,27.17
2023-02-07T08:13:05.333Z,28.23
2023-02-07T08:15:32.340Z,29.70
2023-02-07T08:17:59.210Z,26.37
2023-02-07T08:20:25.863Z,27.07
2023-02-07T08:22:53.255Z,27.20
2023-02-07T08:25:19.927Z,25.03
2023-02-07T08:27:46.711Z,26.97
2023-02-07T08:30:14.035Z,29.77
2023-02-07T08:32:42.022Z,26.80
2023-02-07T08:35:09.357Z,28.60
2023-02-07T08:37:36.413Z,25.53
2023-02-07T08:40:05.003Z,26.27
2023-02-07T08:42:31.799Z,28.53
2023-02-07T08:44:58.390Z,26.90
2023-02-07T08:47:25.227Z,28.53
2023-02-07T08:49:51.879Z,25.77
2023-02-07T08:52:18.588Z,25.63
2023-02-07T08:54:45.321Z,26.30
2023-02-07T08:57:12.046Z,27.27
2023-02-07T08:59:38.632Z,26.80
2023-02-07T09:02:05.405Z,25.30
2023-02-07T09:04:32.085Z,29.13
2023-02-07T09:06:58.815Z,24.13
2023-02-07T09:09:25.622Z,24.37
2023-02-07T09:11:52.651Z,24.80
2023-02-07T09:14:19.695Z,23.77
2023-02-07T09:16:46.793Z,22.23
2023-02-07T09:19:13.523Z,26.87
2023-02-07T09:21:40.231Z,26.10
2023-02-07T09:24:06.964Z,24.50
2023-02-07T09:26:33.774Z,25.10
2023-02-07T09:29:00.555Z,27.30
2023-02-07T09:31:27.702Z,28.17
2023-02-07T09:33:54.364Z,24.10
2023-02-07T09:36:27.716Z,24.90
2023-02-07T09:38:55.648Z,22.30
2023-02-07T09:41:44.544Z,23.37
2023-02-07T09:44:44.713Z,24.43
2023-02-07T09:47:19.811Z,21.50
2023-02-07T09:49:46.538Z,21.40
2023-02-07T09:52:23.744Z,22.10
2023-02-07T09:54:53.844Z,21.10
2023-02-07T09:57:45.793Z,20.37
2023-02-07T10:00:29.351Z,22.80
2023-02-07T10:02:58.509Z,22.17
2023-02-07T10:05:44.528Z,20.80
2023-02-07T10:08:14.347Z,21.83
2023-02-07T10:10:44.066Z,21.83
2023-02-07T10:13:32.670Z,20.33
2023-02-07T10:15:59.376Z,20.30
2023-02-07T10:18:40.608Z,19.20
2023-02-07T10:21:39.967Z,20.00
2023-02-07T10:24:36.591Z,19.50
2023-02-07T10:27:09.650Z,20.70
2023-02-07T10:29:43.481Z,19.47
2023-02-07T10:32:19.376Z,19.43
2023-02-07T10:34:47.712Z,18.80
2023-02-07T10:37:20.672Z,18.87
2023-02-07T10:39:54.919Z,19.53
2023-02-07T10:42:21.626Z,21.30
2023-02-07T10:44:48.336Z,19.97
2023-02-07T10:47:17.655Z,19.27
2023-02-07T10:49:48.355Z,18.90
2023-02-07T10:52:24.137Z,18.57
2023-02-07T10:54:55.155Z,19.07
2023-02-07T10:57:22.387Z,17.53
2023-02-07T10:59:49.848Z,18.83
2023-02-07T11:02:28.644Z,18.37
2023-02-07T11:04:57.488Z,16.23
2023-02-07T11:07:24.670Z,18.87
2023-02-07T11:09:51.872Z,17.57
2023-02-07T11:12:21.846Z,18.67
2023-02-07T11:15:03.544Z,17.73
2023-02-07T11:17:30.575Z,17.97
2023-02-07T11:20:02.137Z,18.37
2023-02-07T11:22:29.001Z,17.80
2023-02-07T11:25:03.373Z,19.27
2023-02-07T11:27:38.121Z,18.20
2023-02-07T11:30:08.215Z,16.87
2023-02-07T11:32:36.655Z,17.97
2023-02-07T11:35:09.792Z,20.20
2023-02-07T11:37:37.662Z,16.83
2023-02-07T11:40:23.303Z,17.33
2023-02-07T11:43:24.952Z,16.10
2023-02-07T11:45:59.546Z,18.00
2023-02-07T11:48:29.599Z,17.27
2023-02-07T11:50:59.033Z,18.13
2023-02-07T11:53:32.811Z,16.80
2023-02-07T11:55:59.650Z,17.83
2023-02-07T11:58:35.911Z,18.50
2023-02-07T12:01:05.103Z,18.40
2023-02-07T12:03:33.327Z,18.73
2023-02-07T12:06:04.731Z,19.43
2023-02-07T12:08:35.204Z,17.30
2023-02-07T12:11:12.344Z,16.83
2023-02-07T12:13:43.148Z,17.90
2023-02-07T12:16:28.673Z,16.20
2023-02-07T12:19:06.150Z,17.90
2023-02-07T12:22:13.457Z,17.47
2023-02-07T12:24:55.451Z,17.43
2023-02-07T12:27:29.109Z,15.80
2023-02-07T12:30:14.597Z,17.53
2023-02-07T12:33:34.081Z,16.87
2023-02-07T12:36:08.998Z,17.20
2023-02-07T12:38:46.926Z,16.53
2023-02-07T12:41:23.683Z,16.07
2023-02-07T12:44:27.437Z,17.07
2023-02-07T12:46:59.438Z,17.13
2023-02-07T12:49:40.297Z,18.10
2023-02-07T12:52:24.118Z,16.10
2023-02-07T12:55:08.864Z,14.97
2023-02-07T12:57:40.772Z,14.77
2023-02-07T13:00:32.140Z,15.33
2023-02-07T13:03:05.280Z,14.93
2023-02-07T13:05:41.500Z,14.37
2023-02-07T13:08:20.531Z,14.13
2023-02-07T13:11:13.287Z,17.73
2023-02-07T13:14:02.003Z,15.73
2023-02-07T13:16:34.744Z,16.33
2023-02-07T13:19:04.268Z,14.37
2023-02-07T13:21:30.818Z,14.47
2023-02-07T13:24:02.988Z,14.87
2023-02-07T13:26:31.135Z,14.13
2023-02-07T13:29:13.162Z,25.17
2023-02-07T13:31:47.114Z,14.50
2023-02-07T13:34:18.201Z,13.27
2023-02-07T13:36:47.825Z,13.80
2023-02-07T13:39:33.400Z,14.80
2023-02-07T13:42:40.924Z,15.40
2023-02-07T13:45:13.467Z,14.90
2023-02-07T13:47:40.116Z,15.13
2023-02-07T13:50:34.637Z,14.73
2023-02-07T13:53:19.659Z,13.63
2023-02-07T13:55:47.165Z,12.57
2023-02-07T13:58:32.642Z,14.60
2023-02-07T14:01:07.951Z,13.90
2023-02-07T14:03:35.893Z,15.07
2023-02-07T14:06:14.527Z,14.80
2023-02-07T14:08:43.170Z,17.13
2023-02-07T14:11:31.042Z,15.40
2023-02-07T14:14:15.471Z,13.17
2023-02-07T14:16:51.480Z,13.77
2023-02-07T14:19:41.155Z,14.73
2023-02-07T14:22:52.507Z,14.53
2023-02-07T14:25:38.994Z,15.40
2023-02-07T14:28:34.690Z,14.07
2023-02-07T14:31:11.742Z,14.03
2023-02-07T14:33:40.353Z,15.00
2023-02-07T14:36:12.927Z,14.47
2023-02-07T14:38:42.602Z,16.17
2023-02-07T14:41:15.206Z,17.63
2023-02-07T14:43:44.651Z,16.77
2023-02-07T14:46:16.132Z,17.90
2023-02-07T14:48:59.824Z,17.07
2023-02-07T14:51:29.287Z,20.07
2023-02-07T14:57:39.199Z,18.37
2023-02-07T15:00:15.668Z,16.87
2023-02-07T15:02:44.078Z,19.20
2023-02-07T15:05:13.706Z,18.37
2023-02-07T15:07:41.432Z,20.10
2023-02-07T15:10:44.125Z,19.17
2023-02-07T15:13:25.604Z,20.57
2023-02-07T15:15:58.444Z,20.47
2023-02-07T15:18:29.481Z,20.77
2023-02-07T15:20:58.816Z,19.90
2023-02-07T15:23:28.452Z,20.63
2023-02-07T15:25:55.920Z,20.67
2023-02-07T15:28:28.144Z,23.77
2023-02-07T15:31:06.210Z,21.47
2023-02-07T15:33:50.871Z,21.60
2023-02-07T15:36:37.341Z,22.37
2023-02-07T15:39:07.297Z,21.33
2023-02-07T15:41:34.509Z,20.57
2023-02-07T15:44:06.529Z,21.37
2023-02-07T15:46:49.138Z,21.13
2023-02-07T15:49:37.046Z,20.87
2023-02-07T15:52:06.475Z,22.67
2023-02-07T15:54:39.192Z,23.37
2023-02-07T15:57:14.252Z,22.60
2023-02-07T15:59:42.433Z,24.13
2023-02-07T16:02:23.983Z,24.10
2023-02-07T16:04:51.374Z,23.90
2023-02-07T16:07:22.625Z,24.77
2023-02-07T16:09:49.416Z,25.03
2023-02-07T16:12:41.797Z,25.53
2023-02-07T16:15:28.079Z,26.43
2023-02-07T16:17:55.729Z,25.17
2023-02-07T16:20:22.957Z,25.90
2023-02-07T16:22:50.995Z,27.73
2023-02-07T16:25:23.612Z,26.07
2023-02-07T16:27:52.239Z,23.80
2023-02-07T16:30:30.137Z,25.20
2023-02-07T16:32:56.963Z,25.23
2023-02-07T16:35:27.615Z,23.23
2023-02-07T16:37:55.258Z,26.37
2023-02-07T16:40:21.905Z,24.10
2023-02-07T16:42:49.666Z,23.40
2023-02-07T16:45:21.858Z,23.83
2023-02-07T16:47:48.575Z,21.50
2023-02-07T16:50:20.473Z,23.40
2023-02-07T16:52:48.869Z,23.10
2023-02-07T16:55:16.810Z,24.10
2023-02-07T16:57:45.059Z,23.77
2023-02-07T17:00:20.687Z,22.83
2023-02-07T17:02:48.723Z,22.80
2023-02-07T17:05:18.943Z,23.03
2023-02-07T17:07:46.425Z,22.30
2023-02-07T17:10:29.372Z,23.60
2023-02-07T17:12:56.246Z,27.87
2023-02-07T17:15:23.034Z,23.77
2023-02-07T17:17:49.860Z,25.37
2023-02-07T17:20:20.680Z,25.57
2023-02-07T17:22:47.385Z,25.93
2023-02-07T17:25:14.095Z,24.30
2023-02-07T17:27:40.924Z,28.90
2023-02-07T17:30:23.468Z,26.27
2023-02-07T17:32:50.395Z,25.40
2023-02-07T17:35:17.113Z,22.73
2023-02-07T17:37:44.156Z,26.40
2023-02-07T17:40:22.949Z,24.63
2023-02-07T17:42:50.449Z,24.40
2023-02-07T17:45:17.582Z,22.93
2023-02-07T17:47:44.813Z,23.07
2023-02-07T17:50:23.673Z,26.33
2023-02-07T17:52:50.487Z,25.07
2023-02-07T17:55:17.267Z,24.30
2023-02-07T17:57:44.095Z,26.10
2023-02-07T18:00:24.422Z,24.67
2023-02-07T18:02:52.820Z,26.13
2023-02-07T18:05:19.636Z,26.93
2023-02-07T18:07:47.785Z,25.73
2023-02-07T18:10:20.523Z,24.73
2023-02-07T18:12:47.218Z,28.07
2023-02-07T18:15:14.824Z,27.33
2023-02-07T18:17:42.087Z,30.23
2023-02-07T18:20:09.431Z,32.13
2023-02-07T18:22:36.462Z,31.00
2023-02-07T18:25:03.250Z,31.47
2023-02-07T18:27:29.828Z,31.83
2023-02-07T18:29:56.582Z,30.73
2023-02-07T18:32:23.303Z,28.83
2023-02-07T18:34:49.998Z,30.00
2023-02-07T18:37:17.050Z,29.53
2023-02-07T18:39:43.718Z,29.70
2023-02-07T18:42:10.469Z,29.17
2023-02-07T18:44:37.264Z,32.57
2023-02-07T18:47:03.950Z,26.63
2023-02-07T18:49:30.594Z,25.93
2023-02-07T18:51:59.003Z,30.97
2023-02-07T18:54:25.696Z,36.60
2023-02-07T18:56:52.838Z,36.73
2023-02-07T18:59:21.070Z,34.30
2023-02-07T19:01:48.627Z,36.07
2023-02-07T19:04:16.066Z,35.23
2023-02-07T19:06:44.685Z,34.97
2023-02-07T19:09:12.461Z,32.57
2023-02-07T19:11:42.267Z,34.13
2023-02-07T19:14:15.251Z,34.87
2023-02-07T19:16:42.267Z,36.47
2023-02-07T19:19:11.179Z,37.17
2023-02-07T19:21:39.018Z,37.13
2023-02-07T19:24:08.493Z,36.90
2023-02-07T19:26:35.729Z,36.50
2023-02-07T19:29:03.208Z,36.67
2023-02-07T19:31:29.991Z,37.30
2023-02-07T19:33:58.295Z,34.60
2023-02-07T19:36:26.880Z,38.70
2023-02-07T19:38:54.894Z,39.03
2023-02-07T19:41:25.768Z,37.03
2023-02-07T19:43:52.682Z,39.20
2023-02-07T19:46:20.652Z,35.93
2023-02-07T19:48:48.119Z,40.33
2023-02-07T19:51:24.338Z,34.30
2023-02-07T19:53:51.718Z,37.17
2023-02-07T19:56:20.839Z,39.17
2023-02-07T19:58:51.525Z,37.60
2023-02-07T20:01:19.972Z,40.00
2023-02-07T20:03:49.565Z,38.37
2023-02-07T20:06:17.642Z,36.80
2023-02-07T20:08:44.777Z,37.07
2023-02-07T20:11:16.784Z,39.77
2023-02-07T20:13:46.072Z,35.47
2023-02-07T20:16:21.231Z,38.57
2023-02-07T20:18:48.745Z,37.27
2023-02-07T20:21:17.862Z,36.13
2023-02-07T20:23:44.558Z,38.33
2023-02-07T20:26:13.907Z,38.43
2023-02-07T20:28:41.173Z,34.87
2023-02-07T20:31:10.632Z,37.77
2023-02-07T20:33:39.435Z,38.07
2023-02-07T20:36:07.218Z,37.40
2023-02-07T20:38:34.164Z,37.67
2023-02-07T20:41:13.455Z,39.13
2023-02-07T20:43:41.103Z,40.43
2023-02-07T20:46:13.305Z,38.80
2023-02-07T20:48:40.922Z,38.53
2023-02-07T20:51:09.146Z,37.60
2023-02-07T20:53:41.192Z,35.77
2023-02-07T20:56:13.828Z,37.40
2023-02-07T20:58:40.836Z,37.20
2023-02-07T21:01:13.598Z,39.13
2023-02-07T21:03:40.686Z,40.77
2023-02-07T21:06:08.681Z,41.33
2023-02-07T21:08:36.495Z,42.10
2023-02-07T21:11:04.284Z,41.03
2023-02-07T21:13:31.176Z,42.37
2023-02-07T21:16:07.454Z,45.03
2023-02-07T21:18:34.752Z,45.37
2023-02-07T21:21:06.458Z,45.43
2023-02-07T21:23:33.662Z,43.03
2023-02-07T21:26:08.891Z,42.37
2023-02-07T21:28:36.714Z,44.17
2023-02-07T21:31:09.420Z,42.53
2023-02-07T21:33:37.201Z,42.10
2023-02-07T21:36:12.012Z,38.70
2023-02-07T21:38:40.024Z,41.73
2023-02-07T21:41:08.669Z,39.13
2023-02-07T21:43:36.402Z,43.47
2023-02-07T21:46:04.195Z,42.27
2023-02-07T21:48:31.063Z,41.53
2023-02-07T21:51:05.538Z,42.30
2023-02-07T21:53:33.170Z,39.83
2023-02-07T21:56:04.895Z,43.10
2023-02-07T21:58:31.941Z,40.53
2023-02-07T22:01:14.427Z,41.67
2023-02-07T22:03:43.293Z,42.93
2023-02-07T22:06:10.550Z,43.87
2023-02-07T22:08:38.710Z,45.00
2023-02-07T22:11:08.522Z,42.17
2023-02-07T22:13:37.470Z,44.57
2023-02-07T22:16:04.500Z,43.60
2023-02-07T22:18:31.510Z,43.60
2023-02-07T22:21:08.521Z,43.00
2023-02-07T22:23:36.056Z,45.53
2023-02-07T22:26:03.149Z,42.23
2023-02-07T22:28:30.232Z,44.60
2023-02-07T22:30:56.954Z,41.97
2023-02-07T22:33:23.758Z,42.60
2023-02-07T22:35:50.691Z,43.50
2023-02-07T22:38:39.203Z,43.97
2023-02-07T22:41:06.195Z,45.53
2023-02-07T22:43:32.950Z,41.40
2023-02-07T22:46:08.106Z,41.93
2023-02-07T22:48:35.489Z,44.07
2023-02-07T22:51:26.181Z,44.13
2023-02-07T22:53:56.025Z,42.57
2023-02-07T22:56:27.109Z,43.43
2023-02-07T22:58:55.562Z,44.57
2023-02-07T23:01:31.353Z,44.13
2023-02-07T23:03:58.929Z,42.87
2023-02-07T23:06:26.190Z,48.10
2023-02-07T23:08:53.596Z,45.97
2023-02-07T23:11:22.408Z,46.17
2023-02-07T23:13:49.406Z,45.53
2023-02-07T23:16:19.172Z,45.40
2023-02-07T23:18:46.256Z,43.53
2023-02-07T23:21:18.581Z,43.20
2023-02-07T23:23:45.762Z,41.80
2023-02-07T23:26:15.678Z,42.17
2023-02-07T23:28:45.067Z,42.53
2023-02-07T23:31:14.141Z,42.97
2023-02-07T23:33:45.706Z,42.50
2023-02-07T23:36:18.054Z,46.70
2023-02-07T23:38:47.825Z,43.77
2023-02-07T23:41:15.493Z,50.47
2023-02-07T23:43:45.116Z,46.93
2023-02-07T23:46:14.130Z,47.30
2023-02-07T23:48:40.901Z,43.63
2023-02-07T23:51:07.666Z,47.57
2023-02-07T23:53:35.180Z,47.90
2023-02-07T23:56:03.543Z,45.63
2023-02-07T23:58:30.456Z,44.70
